»·PEaware :: SKY96 KPRC-KHII

SKY96 :: KPRC-KHII

FLIGHT INFORMATION

Flight Status: Arrived
Operator:
Sky High Charters
More flights by this operator :: More flights under this callsign
Pilot: Christopher N. (41122)
Aircraft: SOCATA TBM-900
(TBM9)
More flights by this aircraft type
Origin: KPRC Love
United States
Destination: KHII Lake Havasu City
United States
More flights between these airports :: More routes between these airports
Route: WINSKI2 MUMTE V12 EED
File this flight plan on PilotEdge
Remarks: SKY Rating Attempt - Leg 1
Altitude:
(Current/Filed)
12,000ft
Speed:
(Current/Filed)
230kts
Departed: 28-Apr-23 10:22 AM
Arrived: 28-Apr-23 11:15 AM
Distance/Time
Traveled:
96nm/0:52
Distance/Time
To Go:
Arrived

Flight Plot

Page will automatically refresh every two minutes.

Flight plan parsing failed; only flown route is shown


Map Options




Map Legend


Flown Route
Filed Route
Departure Airport
Arrival Airport
Navaid (VOR, NDB)
Fix

Horizontal Profiles

Position Reports

Time Latitude Longitude Heading Altitude Ground
Speed
28-Apr-23 09:37 34.654945 -112.421753 304 4987ft 0kts
28-Apr-23 09:38 34.654945 -112.421753 304 4987ft 0kts
28-Apr-23 09:45 34.654945 -112.421753 304 4987ft 0kts
28-Apr-23 09:46 34.654945 -112.421753 304 4987ft 0kts
28-Apr-23 09:47 34.654945 -112.421753 304 4987ft 0kts
28-Apr-23 09:48 34.654945 -112.421753 304 4987ft 0kts
28-Apr-23 09:49 34.654945 -112.421753 304 4987ft 0kts
28-Apr-23 09:50 34.654945 -112.421753 304 4987ft 0kts
28-Apr-23 09:51 34.654945 -112.421753 304 4987ft 0kts
28-Apr-23 09:52 34.654945 -112.421753 304 4987ft 0kts
28-Apr-23 09:53 34.654945 -112.421753 304 4987ft 0kts
28-Apr-23 09:54 34.654945 -112.421753 304 4987ft 0kts
28-Apr-23 09:55 34.654945 -112.421753 304 4987ft 0kts
28-Apr-23 09:56 34.654945 -112.421753 304 4987ft 0kts
28-Apr-23 09:57 34.654945 -112.421753 304 4987ft 0kts
28-Apr-23 09:58 34.654945 -112.421753 304 4987ft 0kts
28-Apr-23 09:58 34.654945 -112.421753 304 4987ft 0kts
28-Apr-23 10:00 34.654945 -112.421753 304 4987ft 0kts
28-Apr-23 10:01 34.654945 -112.421753 304 4987ft 0kts
28-Apr-23 10:02 34.654945 -112.421753 304 4987ft 0kts
28-Apr-23 10:03 34.654945 -112.421753 304 4987ft 0kts
28-Apr-23 10:03 34.654945 -112.421753 304 4987ft 0kts
28-Apr-23 10:04 34.654945 -112.421753 304 4987ft 0kts
28-Apr-23 10:06 34.654945 -112.421753 304 4987ft 0kts
28-Apr-23 10:07 34.654945 -112.421753 304 4987ft 0kts
28-Apr-23 10:08 34.654945 -112.421753 304 4987ft 0kts
28-Apr-23 10:08 34.654945 -112.421753 304 4987ft 0kts
28-Apr-23 10:09 34.654945 -112.421753 304 4987ft 0kts
28-Apr-23 10:10 34.654945 -112.421753 304 4987ft 0kts
28-Apr-23 10:12 34.654946 -112.421753 304 4987ft 0kts
28-Apr-23 10:12 34.654946 -112.421753 304 4987ft 0kts
28-Apr-23 10:13 34.654946 -112.421753 304 4987ft 0kts
28-Apr-23 10:14 34.654946 -112.421753 304 4987ft 0kts
28-Apr-23 10:15 34.654192 -112.421768 220 4990ft 10kts
28-Apr-23 10:16 34.652327 -112.423745 221 5000ft 8kts
28-Apr-23 10:17 34.650371 -112.425296 221 5009ft 9kts
28-Apr-23 10:18 34.648383 -112.427408 221 5022ft 10kts
28-Apr-23 10:19 34.647027 -112.428667 131 5029ft 0kts
28-Apr-23 10:20 34.647027 -112.428667 131 5029ft 0kts
28-Apr-23 10:21 34.650131 -112.424171 41 5009ft 89kts
28-Apr-23 10:22 34.666785 -112.391989 114 6771ft 143kts
28-Apr-23 10:23 34.630228 -112.395688 162 9276ft 148kts
28-Apr-23 10:24 34.609325 -112.354470 123 11448ft 154kts
28-Apr-23 10:25 34.580156 -112.307307 130 12008ft 195kts
28-Apr-23 10:26 34.544079 -112.256399 137 11981ft 197kts
28-Apr-23 10:27 34.503451 -112.282495 230 11988ft 185kts
28-Apr-23 10:28 34.479876 -112.337003 247 11985ft 182kts
28-Apr-23 10:29 34.464327 -112.395383 253 11988ft 182kts
28-Apr-23 10:30 34.454110 -112.455438 265 11987ft 182kts
28-Apr-23 10:31 34.452792 -112.516821 275 11989ft 183kts
28-Apr-23 10:32 34.461816 -112.577474 286 11992ft 184kts
28-Apr-23 10:33 34.484207 -112.633177 300 11991ft 185kts
28-Apr-23 10:34 34.515444 -112.682739 310 11991ft 185kts
28-Apr-23 10:35 34.553907 -112.723942 320 11991ft 186kts
28-Apr-23 10:36 34.598856 -112.755133 338 11984ft 186kts
28-Apr-23 10:37 34.648074 -112.773594 350 11992ft 186kts
28-Apr-23 10:38 34.699288 -112.784091 341 11987ft 187kts
28-Apr-23 10:39 34.713817 -112.840884 272 11991ft 185kts
28-Apr-23 10:40 34.717040 -112.902946 271 11990ft 184kts
28-Apr-23 10:41 34.719980 -112.965015 271 11991ft 183kts
28-Apr-23 10:42 34.723009 -113.031198 271 12082ft 222kts
28-Apr-23 10:43 34.726164 -113.111022 270 12052ft 244kts
28-Apr-23 10:44 34.729049 -113.194295 270 12027ft 247kts
28-Apr-23 10:45 34.731880 -113.277954 270 12004ft 248kts
28-Apr-23 10:46 34.734661 -113.361950 270 12000ft 248kts
28-Apr-23 10:47 34.737381 -113.445870 270 12000ft 248kts
28-Apr-23 10:48 34.740006 -113.528564 270 12156ft 245kts
28-Apr-23 10:49 34.742591 -113.612021 270 12156ft 247kts
28-Apr-23 10:50 34.745135 -113.695876 270 12155ft 248kts
28-Apr-23 10:51 34.747619 -113.779654 270 12151ft 248kts
28-Apr-23 10:52 34.750060 -113.863465 270 12107ft 249kts
28-Apr-23 10:53 34.752479 -113.947616 269 12065ft 249kts
28-Apr-23 10:54 34.754755 -114.031989 270 12030ft 248kts
28-Apr-23 10:55 34.757075 -114.118154 270 11066ft 256kts
28-Apr-23 10:56 34.759321 -114.203985 269 9970ft 253kts
28-Apr-23 10:57 34.761489 -114.289002 270 8870ft 245kts
28-Apr-23 10:58 34.763462 -114.368593 271 8005ft 224kts
28-Apr-23 10:59 34.765178 -114.438870 271 8013ft 196kts
28-Apr-23 11:00 34.781710 -114.493051 351 8028ft 181kts
28-Apr-23 11:01 34.809587 -114.540852 292 8030ft 185kts
28-Apr-23 11:02 34.843198 -114.576223 35 7341ft 175kts
28-Apr-23 11:03 34.843900 -114.525576 102 6217ft 156kts
28-Apr-23 11:04 34.807373 -114.497653 148 4984ft 161kts
28-Apr-23 11:05 34.766426 -114.475254 150 4012ft 151kts
28-Apr-23 11:06 34.731927 -114.456138 152 3473ft 112kts
28-Apr-23 11:07 34.702535 -114.441649 152 3523ft 116kts
28-Apr-23 11:08 34.674576 -114.423282 135 3517ft 114kts
28-Apr-23 11:09 34.645648 -114.407510 174 3528ft 119kts
28-Apr-23 11:10 34.612220 -114.403850 178 3343ft 132kts
28-Apr-23 11:11 34.574242 -114.393141 166 2500ft 139kts
28-Apr-23 11:12 34.544090 -114.374812 147 2508ft 107kts
28-Apr-23 11:13 34.546310 -114.347109 27 1822ft 96kts
28-Apr-23 11:14 34.565585 -114.354381 326 763ft 40kts
28-Apr-23 11:15 34.567190 -114.358251 273 735ft 0kts
28-Apr-23 11:16 34.567190 -114.358251 273 735ft 0kts
28-Apr-23 11:17 34.567190 -114.358250 273 735ft 0kts
28-Apr-23 11:18 34.567190 -114.358250 273 735ft 0kts
28-Apr-23 11:19 34.567190 -114.358250 273 735ft 0kts
28-Apr-23 11:20 34.567190 -114.358250 273 735ft 0kts

Navigation Log

Ident Type
Flight plan parsing failed, navigation log unavailable